Atlantic Mine, Michigan
Current Conditions -  °F | °C
As of 9:05 AM on Monday 24 Nov 2014 (Local Time) from KCMX Reporting Station
Light Snow Light Snow  
Wind Chill: 17°   Ceiling: 600
Heat Index: 31°   Visibility: 1.2mi
Dew Point: 28°   Wind: 25mph
Humidity: 89%   Direction: 350°N
Pressure: 29.06"   Gusts: 37mph
Location:  47.1°N, 88.63°W
Report Text: KCMX 241405Z AUTO 35022G32KT 1 1/4SM -SN BR BKN006 OVC026 M01/M02 A2906 RMK AO2 PK WND 35032/1400 FZRAE05SNB05 CIG 003V007 P0000 I1000 T10061022
Loading
Personal Weather Stations






























Interactive Weather Map New forecast layout! Learn more

10-Day Weather Forecast

Advertisements
Track Severe Weather on mobile